Time;durP1;ratioP1;P1;durP2;ratioP2;P2;SDS_P1;SDS_P2;PMS_P1;PMS_P2;Temp;Humidity;BMP_temperature;BMP_pressure;BME280_temperature;BME280_humidity;BME280_pressure;Samples;Min_cycle;Max_cycle;Signal;HPM_P1;HPM_P2
2021/08/28 00:02:01;;;;;;;;;;;19.60;69.50;;;;;;5063285;28;19920;-52
2021/08/28 00:04:27;;;;;;;;;;;19.60;69.50;;;;;;5063383;28;19912;-55
2021/08/28 00:06:52;;;;;;;;;;;19.60;69.60;;;;;;5062638;28;20576;-60
2021/08/28 00:09:18;;;;;;;;;;;19.60;69.60;;;;;;5065454;28;19924;-56
2021/08/28 00:11:43;;;;;;;;;;;19.60;69.50;;;;;;5061573;28;19912;-55
2021/08/28 00:14:08;;;;;;;;;;;19.60;69.60;;;;;;5066266;28;20365;-60
2021/08/28 00:16:34;;;;;;;;;;;19.60;69.50;;;;;;5065664;28;19935;-56
2021/08/28 00:18:59;;;;;;;;;;;19.60;69.50;;;;;;5065238;28;19927;-55
2021/08/28 00:21:25;;;;;;;;;;;19.60;69.50;;;;;;5065944;28;19934;-59
2021/08/28 00:23:50;;;;;;;;;;;19.60;69.40;;;;;;5065212;28;20525;-52
2021/08/28 00:26:16;;;;;;;;;;;19.60;69.40;;;;;;5065334;28;19938;-53
2021/08/28 00:28:41;;;;;;;;;;;19.60;69.50;;;;;;5065403;28;19916;-59
2021/08/28 00:31:07;;;;;;;;;;;19.60;69.40;;;;;;5060456;28;19913;-53
2021/08/28 00:33:32;;;;;;;;;;;19.60;69.40;;;;;;5064590;28;19917;-54
2021/08/28 00:35:58;;;;;;;;;;;19.60;69.40;;;;;;5064566;28;19920;-59
2021/08/28 00:38:23;;;;;;;;;;;19.60;69.40;;;;;;5064516;28;19916;-55
2021/08/28 00:40:48;;;;;;;;;;;19.60;69.40;;;;;;5047087;28;20609;-54
2021/08/28 00:43:14;;;;;;;;;;;19.60;69.40;;;;;;5065255;28;19920;-60
2021/08/28 00:45:39;;;;;;;;;;;19.60;69.40;;;;;;5059338;28;19912;-58
2021/08/28 00:48:06;;;;;;;;;;;19.60;69.40;;;;;;5045338;28;20313;-53
2021/08/28 00:50:33;;;;;;;;;;;19.60;69.40;;;;;;5046639;28;20003;-56
2021/08/28 00:52:59;;;;;;;;;;;19.60;69.40;;;;;;5064679;28;19920;-57
2021/08/28 00:55:25;;;;;;;;;;;19.60;69.40;;;;;;5065124;28;19913;-56
2021/08/28 00:57:51;;;;;;;;;;;19.50;69.30;;;;;;5064750;28;19912;-55
2021/08/28 01:00:17;;;;;;;;;;;19.60;69.40;;;;;;5064610;28;20422;-56
2021/08/28 01:02:44;;;;;;;;;;;19.60;69.40;;;;;;5064968;28;19916;-57
2021/08/28 01:05:13;;;;;;;;;;;19.60;69.40;;;;;;5030424;28;19912;-53
2021/08/28 01:07:59;;;;;;;;;;;19.60;69.40;;;;;;5058826;28;19920;-53
2021/08/28 01:10:27;;;;;;;;;;;19.60;69.40;;;;;;5064284;28;19913;-59
2021/08/28 01:12:53;;;;;;;;;;;19.50;69.30;;;;;;5046784;28;20167;-54
2021/08/28 01:15:20;;;;;;;;;;;19.60;69.40;;;;;;5046778;28;19913;-56
2021/08/28 01:17:45;;;;;;;;;;;19.60;70.00;;;;;;5064820;28;20292;-55
2021/08/28 01:20:23;;;;;;;;;;;19.60;69.40;;;;;;5045851;28;20015;-56
2021/08/28 01:22:49;;;;;;;;;;;19.60;69.40;;;;;;5046891;28;19917;-58
2021/08/28 01:25:14;;;;;;;;;;;19.60;69.30;;;;;;5046702;28;19928;-58
2021/08/28 01:27:45;;;;;;;;;;;19.60;69.30;;;;;;5047391;28;19916;-54
2021/08/28 01:30:10;;;;;;;;;;;19.50;69.90;;;;;;5046544;28;19944;-54
2021/08/28 01:32:36;;;;;;;;;;;19.60;69.30;;;;;;5046544;28;19997;-58
2021/08/28 01:35:02;;;;;;;;;;;19.60;69.30;;;;;;5046287;28;19932;-54
2021/08/28 01:37:27;;;;;;;;;;;19.60;69.30;;;;;;5046533;28;20332;-56
2021/08/28 01:39:53;;;;;;;;;;;19.60;69.30;;;;;;5064634;28;19916;-54
2021/08/28 01:42:19;;;;;;;;;;;19.60;69.20;;;;;;5041188;28;20030;-53
2021/08/28 01:44:45;;;;;;;;;;;19.60;69.20;;;;;;5044419;28;20034;-55
2021/08/28 01:47:12;;;;;;;;;;;19.60;69.20;;;;;;5046468;28;19925;-58
2021/08/28 01:49:38;;;;;;;;;;;19.50;69.20;;;;;;5048147;28;20275;-60
2021/08/28 01:52:03;;;;;;;;;;;19.50;69.20;;;;;;5031648;28;19919;-54
2021/08/28 01:54:29;;;;;;;;;;;19.50;69.20;;;;;;5067951;28;19966;-52
2021/08/28 01:56:54;;;;;;;;;;;19.50;69.20;;;;;;5068298;28;19916;-55
2021/08/28 01:59:19;;;;;;;;;;;19.50;69.20;;;;;;5049603;28;19928;-58
2021/08/28 02:01:45;;;;;;;;;;;19.50;69.20;;;;;;5067586;28;19913;-59
2021/08/28 02:04:10;;;;;;;;;;;19.50;69.30;;;;;;5068176;28;20386;-55
2021/08/28 02:06:36;;;;;;;;;;;19.50;69.90;;;;;;5067998;28;19916;-56
2021/08/28 02:09:06;;;;;;;;;;;19.50;69.20;;;;;;5067727;28;19952;-51
2021/08/28 02:11:45;;;;;;;;;;;19.50;69.20;;;;;;5067685;28;19921;-56
2021/08/28 02:14:13;;;;;;;;;;;19.50;69.20;;;;;;5067054;28;19919;-57
2021/08/28 02:16:38;;;;;;;;;;;19.50;69.20;;;;;;5049780;28;19940;-54
2021/08/28 02:19:07;;;;;;;;;;;19.60;69.20;;;;;;5049789;28;19916;-55
2021/08/28 02:21:32;;;;;;;;;;;19.50;69.20;;;;;;5044850;28;20645;-52
2021/08/28 02:24:11;;;;;;;;;;;19.50;69.10;;;;;;5064259;28;19912;-59
2021/08/28 02:26:38;;;;;;;;;;;19.60;69.20;;;;;;5045598;28;19920;-58
2021/08/28 02:29:04;;;;;;;;;;;19.50;69.10;;;;;;5067564;28;20007;-55
2021/08/28 02:31:33;;;;;;;;;;;19.50;69.10;;;;;;5067636;28;19991;-55
2021/08/28 02:33:59;;;;;;;;;;;19.50;69.20;;;;;;5049534;28;19987;-57
2021/08/28 02:36:24;;;;;;;;;;;19.50;69.20;;;;;;5042857;28;20012;-59
2021/08/28 02:38:50;;;;;;;;;;;19.50;69.20;;;;;;5067037;28;19939;-58
2021/08/28 02:41:15;;;;;;;;;;;19.50;69.20;;;;;;5047917;28;19912;-56
2021/08/28 02:43:41;;;;;;;;;;;19.50;69.20;;;;;;5067176;28;19912;-58
2021/08/28 02:46:06;;;;;;;;;;;19.50;69.20;;;;;;5057009;28;20414;-57
2021/08/28 02:48:32;;;;;;;;;;;19.50;69.20;;;;;;5045835;28;19920;-52
2021/08/28 02:50:57;;;;;;;;;;;19.50;69.20;;;;;;5064989;28;19920;-58
2021/08/28 02:53:23;;;;;;;;;;;19.50;69.20;;;;;;5064296;28;19967;-58
2021/08/28 02:55:48;;;;;;;;;;;19.50;69.20;;;;;;5064355;28;19924;-53
2021/08/28 02:58:14;;;;;;;;;;;19.50;69.20;;;;;;5046197;28;20014;-54
2021/08/28 03:00:40;;;;;;;;;;;19.50;69.20;;;;;;5046978;28;20569;-56
2021/08/28 03:03:06;;;;;;;;;;;19.50;69.10;;;;;;5046358;28;19939;-57
2021/08/28 03:05:31;;;;;;;;;;;19.50;69.10;;;;;;5047271;28;19971;-57
2021/08/28 03:07:57;;;;;;;;;;;19.50;69.20;;;;;;5064704;28;20366;-54
2021/08/28 03:10:22;;;;;;;;;;;19.50;69.20;;;;;;5046772;28;19913;-57
2021/08/28 03:12:48;;;;;;;;;;;19.50;69.10;;;;;;5063555;28;19920;-57
2021/08/28 03:15:13;;;;;;;;;;;19.50;69.10;;;;;;5030691;28;19912;-59
2021/08/28 03:17:39;;;;;;;;;;;19.50;69.20;;;;;;5048185;28;19913;-56
2021/08/28 03:20:05;;;;;;;;;;;19.50;69.10;;;;;;5047083;28;19916;-53
2021/08/28 03:22:31;;;;;;;;;;;19.50;69.10;;;;;;5047675;28;22869;-57
2021/08/28 03:24:56;;;;;;;;;;;19.50;69.20;;;;;;5063543;28;20730;-57
2021/08/28 03:27:22;;;;;;;;;;;19.50;69.10;;;;;;5047565;28;19920;-59
2021/08/28 03:29:47;;;;;;;;;;;19.50;69.10;;;;;;5048055;28;19942;-54
2021/08/28 03:32:14;;;;;;;;;;;19.50;69.10;;;;;;5045025;28;19958;-57
2021/08/28 03:34:39;;;;;;;;;;;19.50;69.20;;;;;;5041579;28;19912;-53
2021/08/28 03:37:04;;;;;;;;;;;19.50;69.10;;;;;;5065059;28;20001;-58
2021/08/28 03:39:30;;;;;;;;;;;19.50;69.20;;;;;;5039648;28;19920;-53
2021/08/28 03:41:55;;;;;;;;;;;19.50;69.20;;;;;;5048033;28;19913;-56
2021/08/28 03:44:21;;;;;;;;;;;19.50;69.20;;;;;;5047815;28;19920;-56
2021/08/28 03:46:47;;;;;;;;;;;19.50;69.20;;;;;;5065494;28;19917;-55
2021/08/28 03:49:12;;;;;;;;;;;19.50;69.20;;;;;;5059448;28;19919;-56
2021/08/28 03:51:38;;;;;;;;;;;19.50;69.10;;;;;;5063921;28;20255;-59
2021/08/28 03:54:03;;;;;;;;;;;19.50;69.10;;;;;;5045272;28;19951;-54
2021/08/28 03:56:29;;;;;;;;;;;19.50;69.20;;;;;;5063527;28;19919;-56
2021/08/28 03:58:54;;;;;;;;;;;19.50;69.20;;;;;;5063137;28;19920;-56
2021/08/28 04:01:20;;;;;;;;;;;19.50;69.20;;;;;;5065847;28;19918;-57
2021/08/28 04:03:45;;;;;;;;;;;19.50;69.20;;;;;;5047710;28;20369;-55
2021/08/28 04:06:11;;;;;;;;;;;19.50;69.20;;;;;;5066398;28;20266;-57
2021/08/28 04:08:36;;;;;;;;;;;19.50;69.20;;;;;;5046051;28;19916;-57
2021/08/28 04:11:02;;;;;;;;;;;19.50;69.40;;;;;;5065640;28;19913;-54
2021/08/28 04:13:27;;;;;;;;;;;19.50;69.60;;;;;;5047117;28;20285;-58
2021/08/28 04:15:54;;;;;;;;;;;19.50;69.70;;;;;;5064948;28;19924;-56
2021/08/28 04:18:20;;;;;;;;;;;19.50;69.90;;;;;;5065295;28;20003;-54
2021/08/28 04:20:45;;;;;;;;;;;19.50;69.90;;;;;;5065340;28;20489;-57
2021/08/28 04:23:11;;;;;;;;;;;19.50;70.00;;;;;;5064885;28;19912;-56
2021/08/28 04:25:36;;;;;;;;;;;19.40;70.10;;;;;;5046482;28;20250;-56
2021/08/28 04:28:02;;;;;;;;;;;19.40;70.20;;;;;;5064654;28;19916;-55
2021/08/28 04:30:28;;;;;;;;;;;19.40;70.20;;;;;;5064924;28;19962;-55
2021/08/28 04:32:54;;;;;;;;;;;19.40;70.30;;;;;;5063994;28;19923;-59
2021/08/28 04:37:52;;;;;;;;;;;19.40;70.40;;;;;;5098199;28;19959;-60
2021/08/28 04:40:17;;;;;;;;;;;19.40;70.50;;;;;;5103829;28;20269;-61
2021/08/28 04:42:43;;;;;;;;;;;19.40;70.60;;;;;;5105731;28;19924;-62
2021/08/28 04:45:08;;;;;;;;;;;19.40;70.60;;;;;;5104661;28;19961;-62
2021/08/28 04:47:34;;;;;;;;;;;19.40;70.70;;;;;;5105199;28;19922;-63
2021/08/28 04:49:59;;;;;;;;;;;19.40;70.70;;;;;;5103828;28;19919;-63
2021/08/28 04:52:25;;;;;;;;;;;19.40;70.90;;;;;;5104563;28;19916;-60
2021/08/28 04:54:50;;;;;;;;;;;19.40;70.90;;;;;;5104447;28;20439;-62
2021/08/28 04:57:16;;;;;;;;;;;19.40;71.00;;;;;;5104341;28;19912;-62
2021/08/28 04:59:41;;;;;;;;;;;19.30;71.00;;;;;;5104068;28;20034;-60
2021/08/28 05:02:06;;;;;;;;;;;19.30;71.00;;;;;;5103761;28;19959;-62
2021/08/28 05:04:32;;;;;;;;;;;19.40;71.10;;;;;;5104324;28;19937;-62
2021/08/28 05:06:57;;;;;;;;;;;19.30;70.90;;;;;;5104216;28;19963;-63
2021/08/28 05:09:23;;;;;;;;;;;19.40;71.00;;;;;;5103413;28;19920;-62
2021/08/28 05:11:48;;;;;;;;;;;19.40;70.80;;;;;;5104460;28;19912;-63
2021/08/28 05:14:14;;;;;;;;;;;19.40;70.90;;;;;;5104315;28;20404;-60
2021/08/28 05:16:39;;;;;;;;;;;19.40;70.80;;;;;;5104074;28;19916;-62
2021/08/28 05:19:05;;;;;;;;;;;19.40;70.70;;;;;;5103137;28;19928;-62
2021/08/28 05:21:31;;;;;;;;;;;19.40;70.70;;;;;;5102891;28;19919;-63
2021/08/28 05:23:57;;;;;;;;;;;19.40;70.60;;;;;;5103998;28;19998;-63
2021/08/28 05:26:22;;;;;;;;;;;19.40;70.50;;;;;;5103254;28;20431;-62
2021/08/28 05:28:47;;;;;;;;;;;19.40;70.50;;;;;;5100931;28;20408;-63
2021/08/28 05:31:13;;;;;;;;;;;19.40;70.50;;;;;;5103313;28;20021;-63
2021/08/28 05:33:38;;;;;;;;;;;19.40;70.30;;;;;;5104125;28;19922;-62
2021/08/28 05:36:04;;;;;;;;;;;19.40;70.30;;;;;;5101551;28;19920;-63
2021/08/28 05:38:29;;;;;;;;;;;19.40;70.40;;;;;;5103020;28;19924;-61
2021/08/28 05:40:55;;;;;;;;;;;19.40;70.30;;;;;;5102989;28;19916;-62
2021/08/28 05:43:20;;;;;;;;;;;19.40;70.30;;;;;;5086408;28;20597;-63
2021/08/28 05:45:46;;;;;;;;;;;19.40;70.20;;;;;;5104041;28;20339;-62
2021/08/28 05:48:11;;;;;;;;;;;19.50;70.10;;;;;;5103424;28;19923;-63
2021/08/28 05:50:37;;;;;;;;;;;19.50;70.10;;;;;;5103114;28;19992;-62
2021/08/28 05:53:02;;;;;;;;;;;19.40;69.90;;;;;;5103915;28;19912;-62
2021/08/28 05:55:28;;;;;;;;;;;19.50;70.00;;;;;;5086023;28;20299;-62
2021/08/28 05:57:53;;;;;;;;;;;19.50;69.90;;;;;;5103244;28;20593;-62
2021/08/28 06:00:18;;;;;;;;;;;19.40;69.90;;;;;;5102573;28;19912;-62
2021/08/28 06:02:44;;;;;;;;;;;19.50;69.80;;;;;;5103961;28;19912;-61
2021/08/28 06:05:10;;;;;;;;;;;19.50;69.80;;;;;;5103079;28;19912;-61
2021/08/28 06:07:35;;;;;;;;;;;19.50;69.80;;;;;;5086080;28;20372;-63
2021/08/28 06:10:01;;;;;;;;;;;19.50;69.80;;;;;;5103038;28;19919;-62
2021/08/28 06:12:26;;;;;;;;;;;19.50;69.80;;;;;;5103506;28;19998;-61
2021/08/28 06:14:52;;;;;;;;;;;19.40;69.60;;;;;;5102993;28;19912;-62
2021/08/28 06:17:17;;;;;;;;;;;19.40;69.70;;;;;;5103902;28;19935;-62
2021/08/28 06:19:43;;;;;;;;;;;19.50;69.70;;;;;;5103325;28;19920;-62
2021/08/28 06:22:08;;;;;;;;;;;19.40;69.60;;;;;;5103452;28;19916;-62
2021/08/28 06:24:33;;;;;;;;;;;19.40;69.60;;;;;;5103960;28;20368;-62
2021/08/28 06:26:59;;;;;;;;;;;19.50;69.60;;;;;;5102523;28;19938;-62
2021/08/28 06:29:24;;;;;;;;;;;19.40;69.60;;;;;;5103625;28;19912;-63
2021/08/28 06:31:50;;;;;;;;;;;19.50;69.50;;;;;;5085666;28;19911;-60
2021/08/28 06:34:15;;;;;;;;;;;19.50;69.50;;;;;;5107109;28;20428;-62
2021/08/28 06:36:41;;;;;;;;;;;19.50;69.50;;;;;;5107256;28;19946;-63
2021/08/28 06:39:07;;;;;;;;;;;19.50;69.50;;;;;;5105895;28;19916;-62
2021/08/28 06:41:32;;;;;;;;;;;19.50;69.40;;;;;;5106858;28;20450;-61
2021/08/28 06:43:58;;;;;;;;;;;19.50;69.40;;;;;;5108682;28;20431;-61
2021/08/28 06:46:26;;;;;;;;;;;19.50;69.40;;;;;;5108383;28;19916;-62
2021/08/28 06:48:51;;;;;;;;;;;19.50;69.30;;;;;;5107751;28;20300;-61
2021/08/28 06:51:17;;;;;;;;;;;19.50;69.30;;;;;;5106860;28;19916;-62
2021/08/28 06:53:42;;;;;;;;;;;19.50;69.30;;;;;;5102248;28;19916;-62
2021/08/28 06:56:08;;;;;;;;;;;19.50;69.40;;;;;;5101218;28;19911;-62
2021/08/28 06:58:33;;;;;;;;;;;19.50;69.50;;;;;;5100597;28;19919;-62
2021/08/28 07:00:59;;;;;;;;;;;19.50;69.80;;;;;;5100606;28;20625;-62
2021/08/28 07:03:24;;;;;;;;;;;19.50;69.60;;;;;;5100052;28;19912;-63
2021/08/28 07:05:50;;;;;;;;;;;19.40;69.50;;;;;;5082669;28;19929;-61
2021/08/28 07:08:15;;;;;;;;;;;19.50;69.60;;;;;;5101037;28;20309;-62
2021/08/28 07:10:40;;;;;;;;;;;19.40;69.40;;;;;;5100966;28;19924;-62
2021/08/28 07:13:06;;;;;;;;;;;19.50;69.60;;;;;;5102181;28;19912;-61
2021/08/28 07:15:31;;;;;;;;;;;19.40;70.50;;;;;;5100920;28;19915;-62
2021/08/28 07:17:57;;;;;;;;;;;19.40;70.20;;;;;;5100993;28;19922;-62
2021/08/28 07:20:22;;;;;;;;;;;19.40;70.50;;;;;;5100183;28;19922;-61
2021/08/28 07:22:48;;;;;;;;;;;19.50;70.50;;;;;;5102074;28;20386;-61
2021/08/28 07:25:13;;;;;;;;;;;19.50;70.60;;;;;;5082446;28;20013;-62
2021/08/28 07:27:39;;;;;;;;;;;19.50;70.70;;;;;;5101482;28;19973;-60
2021/08/28 07:30:04;;;;;;;;;;;19.40;70.80;;;;;;5100559;28;20020;-58
2021/08/28 07:32:30;;;;;;;;;;;19.50;70.80;;;;;;5101148;28;20078;-59
2021/08/28 07:34:56;;;;;;;;;;;19.50;70.80;;;;;;5100616;28;20488;-61
2021/08/28 07:37:22;;;;;;;;;;;19.50;70.70;;;;;;5101160;28;19920;-60
2021/08/28 07:39:48;;;;;;;;;;;19.50;70.50;;;;;;5100350;28;20341;-59
2021/08/28 07:42:13;;;;;;;;;;;19.50;70.30;;;;;;5100037;28;19923;-61
2021/08/28 07:44:39;;;;;;;;;;;19.50;70.20;;;;;;5100379;28;19912;-60
2021/08/28 07:47:04;;;;;;;;;;;19.50;70.10;;;;;;5100726;28;19924;-61
2021/08/28 07:49:29;;;;;;;;;;;19.50;70.10;;;;;;5099456;28;19915;-60
2021/08/28 07:51:55;;;;;;;;;;;19.40;69.90;;;;;;5100392;28;20348;-58
2021/08/28 07:54:20;;;;;;;;;;;19.50;69.90;;;;;;5100229;28;19912;-59
2021/08/28 07:56:46;;;;;;;;;;;19.50;69.80;;;;;;5100928;28;19911;-60
2021/08/28 07:59:11;;;;;;;;;;;19.50;69.70;;;;;;5100259;28;19912;-59
2021/08/28 08:01:37;;;;;;;;;;;19.50;69.70;;;;;;5100059;28;19916;-59
2021/08/28 08:04:02;;;;;;;;;;;19.50;69.70;;;;;;5100676;28;19919;-60
2021/08/28 08:06:28;;;;;;;;;;;19.50;69.60;;;;;;5100134;28;20488;-60
2021/08/28 08:08:53;;;;;;;;;;;19.50;69.60;;;;;;5100424;28;19919;-60
2021/08/28 08:11:18;;;;;;;;;;;19.50;69.50;;;;;;5100191;27;19918;-60
2021/08/28 08:13:44;;;;;;;;;;;19.50;69.50;;;;;;5103216;28;20277;-59
2021/08/28 08:16:10;;;;;;;;;;;19.50;69.50;;;;;;5102076;28;19912;-60
2021/08/28 08:18:35;;;;;;;;;;;19.50;69.60;;;;;;5100959;28;19965;-60
2021/08/28 08:21:00;;;;;;;;;;;19.50;69.60;;;;;;5082896;28;19912;-60
2021/08/28 08:23:26;;;;;;;;;;;19.50;69.60;;;;;;5100812;28;20412;-58
2021/08/28 08:25:51;;;;;;;;;;;19.50;69.60;;;;;;5100008;28;19977;-61
2021/08/28 08:28:17;;;;;;;;;;;19.50;69.60;;;;;;5100780;28;20007;-61
2021/08/28 08:30:42;;;;;;;;;;;19.50;69.60;;;;;;5100336;28;19961;-59
2021/08/28 08:33:08;;;;;;;;;;;19.50;70.00;;;;;;5101564;28;19951;-61
2021/08/28 08:35:33;;;;;;;;;;;19.50;70.30;;;;;;5100846;28;19915;-60
2021/08/28 08:38:00;;;;;;;;;;;19.50;70.50;;;;;;5090223;28;19915;-59
2021/08/28 08:40:30;;;;;;;;;;;19.50;70.60;;;;;;5098548;28;19947;-61
2021/08/28 08:42:56;;;;;;;;;;;19.50;70.60;;;;;;5101225;28;19923;-60
2021/08/28 08:45:24;;;;;;;;;;;19.50;70.80;;;;;;5101097;28;19912;-59
2021/08/28 08:47:49;;;;;;;;;;;19.50;70.90;;;;;;5090112;28;19916;-60
2021/08/28 08:50:16;;;;;;;;;;;19.50;70.90;;;;;;5082709;28;20434;-60
2021/08/28 08:52:41;;;;;;;;;;;19.40;71.00;;;;;;5083311;28;19998;-61
2021/08/28 08:55:07;;;;;;;;;;;19.40;70.90;;;;;;5082154;28;20010;-60
2021/08/28 08:57:33;;;;;;;;;;;19.40;70.90;;;;;;5101778;28;19973;-61
2021/08/28 08:59:58;;;;;;;;;;;19.40;71.00;;;;;;5100223;28;19916;-60
2021/08/28 09:02:24;;;;;;;;;;;19.50;71.00;;;;;;5101023;28;19919;-60
2021/08/28 09:04:49;;;;;;;;;;;19.40;71.00;;;;;;5077093;28;19948;-59
2021/08/28 09:07:14;;;;;;;;;;;19.40;71.10;;;;;;5092193;28;19922;-61
2021/08/28 09:09:40;;;;;;;;;;;19.50;71.00;;;;;;5097961;28;19950;-61
2021/08/28 09:12:08;;;;;;;;;;;19.50;70.90;;;;;;5082038;28;19918;-61
2021/08/28 09:14:34;;;;;;;;;;;19.40;70.80;;;;;;5100241;28;19912;-61
2021/08/28 09:17:12;;;;;;;;;;;19.40;70.90;;;;;;5081460;28;19916;-58
2021/08/28 09:19:37;;;;;;;;;;;19.40;70.90;;;;;;5079959;28;19922;-60
2021/08/28 09:22:06;;;;;;;;;;;19.40;70.80;;;;;;5084519;28;19912;-60
2021/08/28 09:24:43;;;;;;;;;;;19.40;70.90;;;;;;5099983;28;19978;-60
2021/08/28 09:27:08;;;;;;;;;;;19.40;70.90;;;;;;5084499;28;19916;-61
2021/08/28 09:29:33;;;;;;;;;;;19.40;70.80;;;;;;5080769;28;20326;-60
2021/08/28 09:32:00;;;;;;;;;;;19.40;70.70;;;;;;5084775;28;19919;-61
2021/08/28 09:34:26;;;;;;;;;;;19.40;70.70;;;;;;5080671;28;19987;-59
2021/08/28 09:36:51;;;;;;;;;;;19.40;70.70;;;;;;5065814;28;20039;-58
2021/08/28 09:39:17;;;;;;;;;;;19.40;70.60;;;;;;5098414;28;19999;-61
2021/08/28 09:41:42;;;;;;;;;;;19.40;70.60;;;;;;5084787;28;19915;-59
2021/08/28 09:44:08;;;;;;;;;;;19.40;70.70;;;;;;5096307;28;21328;-61
2021/08/28 09:46:33;;;;;;;;;;;19.50;70.70;;;;;;5101440;28;19912;-60
2021/08/28 09:49:00;;;;;;;;;;;19.40;70.70;;;;;;5082783;28;19955;-59
2021/08/28 09:51:26;;;;;;;;;;;19.40;70.90;;;;;;5100520;28;19911;-60
2021/08/28 09:54:01;;;;;;;;;;;19.40;71.20;;;;;;5073812;28;20028;-60
2021/08/28 09:56:29;;;;;;;;;;;19.40;71.40;;;;;;5093667;28;19977;-61
2021/08/28 09:58:55;;;;;;;;;;;19.40;71.80;;;;;;5096904;28;19912;-58
2021/08/28 10:01:20;;;;;;;;;;;19.40;72.00;;;;;;5089331;28;20460;-59
2021/08/28 10:03:56;;;;;;;;;;;19.40;72.00;;;;;;5098114;28;20003;-60
2021/08/28 10:06:21;;;;;;;;;;;19.40;72.10;;;;;;5098940;28;19920;-59
2021/08/28 10:08:46;;;;;;;;;;;19.40;72.30;;;;;;5101003;28;19980;-60
2021/08/28 10:11:12;;;;;;;;;;;19.40;72.20;;;;;;5082266;28;20491;-60
2021/08/28 10:13:37;;;;;;;;;;;19.40;72.20;;;;;;5102079;28;19916;-58
2021/08/28 10:16:03;;;;;;;;;;;19.40;72.20;;;;;;5082899;28;19964;-58
2021/08/28 10:18:29;;;;;;;;;;;19.40;72.30;;;;;;5098265;28;19927;-61
2021/08/28 10:20:55;;;;;;;;;;;19.40;72.30;;;;;;5102356;28;19912;-59
2021/08/28 10:23:21;;;;;;;;;;;19.40;72.20;;;;;;5083358;28;19916;-61
2021/08/28 10:25:46;;;;;;;;;;;19.40;72.30;;;;;;5064592;28;20297;-61
2021/08/28 10:28:12;;;;;;;;;;;19.40;72.20;;;;;;5102140;28;19915;-60
2021/08/28 10:30:37;;;;;;;;;;;19.40;72.20;;;;;;5101634;28;20126;-59
2021/08/28 10:33:03;;;;;;;;;;;19.40;72.80;;;;;;5101576;28;20304;-61
2021/08/28 10:35:29;;;;;;;;;;;19.40;72.10;;;;;;5099999;28;19919;-57
2021/08/28 10:37:54;;;;;;;;;;;19.40;72.00;;;;;;5100315;28;20333;-59
2021/08/28 10:40:24;;;;;;;;;;;19.40;72.00;;;;;;5083108;22;19924;-59
2021/08/28 10:42:58;;;;;;;;;;;19.40;71.90;;;;;;5059506;28;20379;-56
2021/08/28 10:45:24;;;;;;;;;;;19.40;71.80;;;;;;5060844;28;19978;-54
2021/08/28 10:47:50;;;;;;;;;;;19.40;71.80;;;;;;5073617;28;20546;-51
2021/08/28 10:50:16;;;;;;;;;;;19.50;71.80;;;;;;5042580;28;20593;-53
2021/08/28 10:52:43;;;;;;;;;;;19.40;71.60;;;;;;5050651;28;19996;-57
2021/08/28 10:55:09;;;;;;;;;;;19.50;71.60;;;;;;5044944;28;19913;-57
2021/08/28 10:57:35;;;;;;;;;;;19.50;71.60;;;;;;5067665;28;20165;-59
2021/08/28 11:00:04;;;;;;;;;;;19.40;71.40;;;;;;5050880;28;19928;-56
2021/08/28 11:02:46;;;;;;;;;;;19.50;71.40;;;;;;5074035;28;19995;-52
2021/08/28 11:05:15;;;;;;;;;;;19.50;71.20;;;;;;5069118;28;20070;-58
2021/08/28 11:07:43;;;;;;;;;;;19.50;71.30;;;;;;5058505;28;19929;-61
2021/08/28 11:10:09;;;;;;;;;;;19.50;71.20;;;;;;5043892;28;19919;-60
2021/08/28 11:12:42;;;;;;;;;;;19.50;71.30;;;;;;5067189;28;19913;-56
2021/08/28 11:15:27;;;;;;;;;;;19.50;72.00;;;;;;5052910;28;19939;-63
2021/08/28 11:17:53;;;;;;;;;;;19.50;73.30;;;;;;5063716;28;19916;-57
2021/08/28 11:20:21;;;;;;;;;;;19.50;74.60;;;;;;5046347;28;20311;-60
2021/08/28 11:22:47;;;;;;;;;;;19.50;75.80;;;;;;5062171;28;20106;-56
2021/08/28 11:25:12;;;;;;;;;;;19.50;76.80;;;;;;5076263;28;19919;-60
2021/08/28 11:27:39;;;;;;;;;;;19.50;77.80;;;;;;5069507;28;19920;-54
2021/08/28 11:30:04;;;;;;;;;;;19.50;78.60;;;;;;5077380;28;19962;-52
2021/08/28 11:32:30;;;;;;;;;;;19.50;79.00;;;;;;5045150;28;19982;-56
2021/08/28 11:34:57;;;;;;;;;;;19.50;79.60;;;;;;5039840;28;19917;-58
2021/08/28 11:37:28;;;;;;;;;;;19.50;79.50;;;;;;5045456;28;19920;-59
2021/08/28 11:39:57;;;;;;;;;;;19.60;79.40;;;;;;5061587;28;20563;-59
2021/08/28 11:42:23;;;;;;;;;;;19.60;78.90;;;;;;5048471;28;19919;-54
2021/08/28 11:44:52;;;;;;;;;;;19.60;78.50;;;;;;5071255;28;20473;-54
2021/08/28 11:47:18;;;;;;;;;;;19.60;78.10;;;;;;5064627;28;19920;-60
2021/08/28 11:49:43;;;;;;;;;;;19.60;77.70;;;;;;5050578;28;20114;-60
2021/08/28 11:52:09;;;;;;;;;;;19.60;77.00;;;;;;5056115;28;20011;-53
2021/08/28 11:54:34;;;;;;;;;;;19.60;76.80;;;;;;5064980;28;19912;-60
2021/08/28 11:57:00;;;;;;;;;;;19.60;76.50;;;;;;5047557;28;19912;-63
2021/08/28 11:59:34;;;;;;;;;;;19.60;75.90;;;;;;5052370;28;19917;-61
2021/08/28 12:02:00;;;;;;;;;;;19.60;75.80;;;;;;5046737;28;19917;-59
2021/08/28 12:04:25;;;;;;;;;;;19.60;75.60;;;;;;5072285;28;19957;-55
2021/08/28 12:06:51;;;;;;;;;;;19.60;75.40;;;;;;5064849;28;19916;-57
2021/08/28 12:09:16;;;;;;;;;;;19.60;75.50;;;;;;5067885;28;19912;-60
2021/08/28 12:11:46;;;;;;;;;;;19.60;75.60;;;;;;5055041;28;19920;-54
2021/08/28 12:14:12;;;;;;;;;;;19.60;75.50;;;;;;5050862;28;19920;-57
2021/08/28 12:16:38;;;;;;;;;;;19.60;75.50;;;;;;5060222;28;20395;-58
2021/08/28 12:19:04;;;;;;;;;;;19.60;75.40;;;;;;5072103;28;19920;-57
2021/08/28 12:21:30;;;;;;;;;;;19.60;75.50;;;;;;5068995;28;19977;-53
2021/08/28 12:23:56;;;;;;;;;;;19.60;75.20;;;;;;5055905;28;20427;-56
2021/08/28 12:26:22;;;;;;;;;;;19.60;74.80;;;;;;5073261;28;19916;-62
2021/08/28 12:28:48;;;;;;;;;;;19.60;74.60;;;;;;5080899;28;19919;-62
2021/08/28 12:31:15;;;;;;;;;;;19.60;74.30;;;;;;5069764;28;19913;-53
2021/08/28 12:33:40;;;;;;;;;;;19.60;74.10;;;;;;5057096;28;19934;-57
2021/08/28 12:36:23;;;;;;;;;;;19.60;73.90;;;;;;5073926;28;19917;-59
2021/08/28 12:38:49;;;;;;;;;;;19.60;73.70;;;;;;5028957;28;20007;-60
2021/08/28 12:41:14;;;;;;;;;;;19.60;73.80;;;;;;5047314;28;19984;-58
2021/08/28 12:43:40;;;;;;;;;;;19.60;74.00;;;;;;5050052;28;19913;-55
2021/08/28 12:46:05;;;;;;;;;;;19.60;73.90;;;;;;5074126;28;19917;-59
2021/08/28 12:48:30;;;;;;;;;;;19.60;74.00;;;;;;5066561;28;19920;-56
2021/08/28 12:51:06;;;;;;;;;;;19.60;74.00;;;;;;5044352;28;19920;-54
2021/08/28 12:53:33;;;;;;;;;;;19.60;74.00;;;;;;5045191;28;19995;-55
2021/08/28 12:56:04;;;;;;;;;;;19.60;74.00;;;;;;5062176;28;19966;-54
2021/08/28 12:58:30;;;;;;;;;;;19.60;74.00;;;;;;5044799;28;19912;-56
2021/08/28 13:00:55;;;;;;;;;;;19.60;74.10;;;;;;5046863;28;20479;-56
2021/08/28 13:03:27;;;;;;;;;;;19.60;74.20;;;;;;5048126;28;20739;-59
2021/08/28 13:05:53;;;;;;;;;;;19.60;74.40;;;;;;5032232;28;20645;-60
2021/08/28 13:08:44;;;;;;;;;;;19.60;74.50;;;;;;5032259;28;19917;-53
2021/08/28 13:11:22;;;;;;;;;;;19.50;74.80;;;;;;5059945;28;19916;-60
2021/08/28 13:13:56;;;;;;;;;;;19.50;75.30;;;;;;5053576;28;19920;-59
2021/08/28 13:16:22;;;;;;;;;;;19.60;75.50;;;;;;5062557;28;20025;-61
2021/08/28 13:19:06;;;;;;;;;;;19.50;75.40;;;;;;5063700;28;20366;-61
2021/08/28 13:21:35;;;;;;;;;;;19.50;75.30;;;;;;5063592;28;19998;-59
2021/08/28 13:24:14;;;;;;;;;;;19.50;75.20;;;;;;5063587;28;20009;-56
2021/08/28 13:27:08;;;;;;;;;;;19.60;75.30;;;;;;5056602;28;19966;-55
2021/08/28 13:29:37;;;;;;;;;;;19.60;75.10;;;;;;5058573;28;20030;-56
2021/08/28 13:32:09;;;;;;;;;;;19.60;75.10;;;;;;5056165;28;20334;-57
2021/08/28 13:34:38;;;;;;;;;;;19.60;74.90;;;;;;5060295;28;20385;-59
2021/08/28 13:37:05;;;;;;;;;;;19.60;74.80;;;;;;5061977;28;19916;-57
2021/08/28 13:39:30;;;;;;;;;;;19.60;74.80;;;;;;5051132;28;19993;-61
2021/08/28 13:41:56;;;;;;;;;;;19.60;74.70;;;;;;5049750;28;19917;-62
2021/08/28 13:44:21;;;;;;;;;;;19.60;74.60;;;;;;5076467;28;20305;-56
2021/08/28 13:46:47;;;;;;;;;;;19.60;74.60;;;;;;5080789;28;19912;-59
2021/08/28 13:49:12;;;;;;;;;;;19.60;74.60;;;;;;5049225;28;20336;-57
2021/08/28 13:51:38;;;;;;;;;;;19.60;74.40;;;;;;5076446;28;19961;-59
2021/08/28 13:54:03;;;;;;;;;;;19.60;75.70;;;;;;5082187;28;21450;-60
2021/08/28 13:56:28;;;;;;;;;;;19.60;77.00;;;;;;5081870;28;19913;-56
2021/08/28 13:58:54;;;;;;;;;;;19.70;77.50;;;;;;5086595;28;20310;-55
2021/08/28 14:01:19;;;;;;;;;;;19.70;77.70;;;;;;5070499;28;19919;-59
2021/08/28 14:03:45;;;;;;;;;;;19.60;78.00;;;;;;5020905;28;19920;-55
2021/08/28 14:06:10;;;;;;;;;;;19.70;78.20;;;;;;5064038;28;19916;-52
2021/08/28 14:08:36;;;;;;;;;;;19.70;78.10;;;;;;5067084;28;19973;-55
2021/08/28 14:11:01;;;;;;;;;;;19.70;78.00;;;;;;5074542;28;19916;-58
2021/08/28 14:13:27;;;;;;;;;;;19.70;77.90;;;;;;5057342;28;19920;-52
2021/08/28 14:15:52;;;;;;;;;;;19.70;77.70;;;;;;5077279;28;19912;-52